Time;durP1;ratioP1;P1;durP2;ratioP2;P2;SDS_P1;SDS_P2;PMS_P1;PMS_P2;Temp;Humidity;BMP_temperature;BMP_pressure;BME280_temperature;BME280_humidity;BME280_pressure;Samples;Min_cycle;Max_cycle;Signal;HPM_P1;HPM_P2
2023/02/14 00:01:45;;;;;;;16.00;11.00;;;;;;;2.85;78.69;101055.55;107141;1258;64842;-86
2023/02/14 00:04:14;;;;;;;15.30;10.40;;;;;;;2.88;78.67;101053.58;107320;1253;73593;-85
2023/02/14 00:06:41;;;;;;;16.20;10.60;;;;;;;2.89;78.61;101048.19;107264;1253;60541;-86
2023/02/14 00:09:14;;;;;;;16.10;11.50;;;;;;;2.88;78.56;101045.44;107520;1253;62180;-86
2023/02/14 00:11:41;;;;;;;14.60;9.50;;;;;;;2.86;78.61;101036.16;107361;1254;73678;-85
2023/02/14 00:16:54;;;;;;;14.50;11.30;;;;;;;2.81;78.60;101020.55;107592;1253;72732;-86
2023/02/14 00:19:21;;;;;;;14.10;10.40;;;;;;;2.80;78.58;101014.02;107344;1253;61041;-86
2023/02/14 00:21:49;;;;;;;18.10;10.90;;;;;;;2.80;79.02;101015.77;107446;1256;60410;-85
2023/02/14 00:24:19;;;;;;;18.20;11.70;;;;;;;2.81;79.33;101019.36;107105;1253;74881;-88
2023/02/14 00:26:46;;;;;;;15.50;11.30;;;;;;;2.83;79.24;101021.56;106928;1253;64477;-88
2023/02/14 00:29:19;;;;;;;17.20;11.00;;;;;;;2.86;79.37;101021.50;107125;1257;72532;-85
2023/02/14 00:31:46;;;;;;;19.20;11.70;;;;;;;2.87;79.51;101016.98;107199;1253;60518;-87
2023/02/14 00:34:15;;;;;;;18.30;10.40;;;;;;;2.85;79.36;101012.54;107349;1253;60232;-85
2023/02/14 00:36:42;;;;;;;21.90;12.90;;;;;;;2.84;79.53;101007.55;107577;1258;73946;-87
2023/02/14 00:39:12;;;;;;;17.80;11.40;;;;;;;2.80;79.53;101000.05;107361;1253;62910;-85
2023/02/14 00:41:39;;;;;;;23.10;13.30;;;;;;;2.80;79.68;100990.73;107175;1253;73584;-85
2023/02/14 00:44:09;;;;;;;18.90;12.30;;;;;;;2.79;79.66;100984.52;107353;1253;62414;-86
2023/02/14 00:46:36;;;;;;;20.20;10.80;;;;;;;2.77;80.09;100974.23;107302;1258;60555;-86
2023/02/14 00:49:05;;;;;;;17.20;11.10;;;;;;;2.74;80.22;100979.81;107914;1253;73593;-85
2023/02/14 00:51:34;;;;;;;17.80;11.30;;;;;;;2.72;80.45;100974.84;107529;1253;63794;-85
2023/02/14 00:54:02;;;;;;;18.90;12.00;;;;;;;2.74;80.64;100972.22;107453;1253;73808;-85
2023/02/14 00:56:31;;;;;;;18.10;11.20;;;;;;;2.76;80.97;100970.42;108235;1253;60497;-85
2023/02/14 00:58:58;;;;;;;15.50;9.90;;;;;;;2.79;81.21;100964.15;107178;1253;61639;-85
2023/02/14 01:01:26;;;;;;;17.60;11.40;;;;;;;2.81;81.15;100965.83;107318;1253;74787;-86
2023/02/14 01:03:53;;;;;;;16.80;11.30;;;;;;;2.79;81.18;100958.27;107376;1253;64690;-87
2023/02/14 01:06:21;;;;;;;17.00;10.70;;;;;;;2.76;81.11;100944.02;107101;1254;73700;-85
2023/02/14 01:08:49;;;;;;;14.50;9.30;;;;;;;2.76;81.30;100947.14;107345;1253;62106;-87
2023/02/14 01:11:19;;;;;;;16.50;9.10;;;;;;;2.74;81.44;100943.89;107501;1253;61568;-85
2023/02/14 01:13:47;;;;;;;16.90;10.90;;;;;;;2.73;81.85;100934.59;107181;1253;75466;-86
2023/02/14 01:16:17;;;;;;;15.20;9.50;;;;;;;2.74;82.17;100938.54;106937;1253;63851;-85
2023/02/14 01:18:44;;;;;;;12.60;8.80;;;;;;;2.76;82.21;100933.66;107181;1253;72402;-86
2023/02/14 01:21:17;;;;;;;13.30;9.40;;;;;;;2.78;82.46;100932.92;107162;1256;60436;-86
2023/02/14 01:23:44;;;;;;;12.90;10.10;;;;;;;2.81;82.34;100928.37;107173;1253;60811;-86
2023/02/14 01:26:11;;;;;;;16.20;10.10;;;;;;;2.83;82.38;100926.25;107285;1253;74633;-87
2023/02/14 01:28:38;;;;;;;15.10;11.00;;;;;;;2.85;82.24;100916.01;107237;1257;65591;-87
2023/02/14 01:31:12;;;;;;;20.20;11.80;;;;;;;2.86;82.17;100916.68;107376;1253;72771;-87
2023/02/14 01:33:40;;;;;;;15.50;11.10;;;;;;;2.83;82.20;100910.70;107562;1253;60810;-86
2023/02/14 01:36:14;;;;;;;15.40;10.50;;;;;;;2.81;82.26;100907.15;107570;1253;60984;-87
2023/02/14 01:38:41;;;;;;;;;;;;;;;2.77;82.49;100905.50;107879;1253;74054;-87
2023/02/14 01:41:09;;;;;;;14.40;10.30;;;;;;;2.77;82.70;100906.89;107838;1253;63640;-86
2023/02/14 01:43:54;;;;;;;17.10;9.90;;;;;;;2.77;82.67;100905.85;107245;1253;73506;-87
2023/02/14 01:46:25;;;;;;;15.20;9.10;;;;;;;2.78;82.78;100904.61;107263;1253;60419;-85
2023/02/14 01:49:19;;;;;;;14.50;9.60;;;;;;;2.79;83.17;100901.65;107271;1255;60520;-87
2023/02/14 01:51:52;;;;;;;13.10;9.00;;;;;;;2.83;83.08;100891.20;107254;1256;73008;-87
2023/02/14 01:54:20;;;;;;;17.60;11.70;;;;;;;2.85;83.01;100889.94;107006;1253;63860;-87
2023/02/14 01:56:50;;;;;;;16.60;10.40;;;;;;;2.86;83.03;100892.67;107120;1253;74474;-86
2023/02/14 01:59:19;;;;;;;16.60;10.90;;;;;;;2.86;83.07;100888.54;107172;1258;62022;-86
2023/02/14 02:01:47;;;;;;;14.70;10.40;;;;;;;2.85;83.04;100881.13;107595;1253;61457;-85
2023/02/14 02:04:17;;;;;;;16.40;11.10;;;;;;;2.86;82.93;100882.84;107787;1253;74381;-86
2023/02/14 02:06:46;;;;;;;18.00;11.00;;;;;;;2.86;83.18;100880.59;107611;1253;62668;-85
2023/02/14 02:09:36;;;;;;;16.80;10.10;;;;;;;2.85;83.09;100878.37;107383;1253;72607;-88
2023/02/14 02:12:03;;;;;;;13.80;9.70;;;;;;;2.83;83.41;100871.34;107689;1253;61862;-87
2023/02/14 02:14:30;;;;;;;17.20;10.80;;;;;;;2.86;83.63;100862.13;107265;1253;61146;-85
2023/02/14 02:17:21;;;;;;;15.70;9.60;;;;;;;2.92;83.81;100852.83;107546;1253;74845;-87
2023/02/14 02:20:02;;;;;;;16.10;11.00;;;;;;;2.94;83.38;100846.21;107385;1253;64558;-87
2023/02/14 02:22:50;;;;;;;18.80;11.90;;;;;;;2.95;83.54;100841.00;107698;1253;72718;-86
2023/02/14 02:25:54;;;;;;;15.70;10.10;;;;;;;2.95;83.40;100837.20;107159;1253;62062;-87
2023/02/14 02:28:42;;;;;;;15.40;11.30;;;;;;;2.96;83.35;100832.02;107150;1253;60530;-86
2023/02/14 02:31:19;;;;;;;17.10;11.70;;;;;;;2.93;83.26;100827.94;107059;1256;73637;-85
2023/02/14 02:34:02;;;;;;;17.20;10.70;;;;;;;2.92;83.37;100818.14;107087;1253;65790;-85
2023/02/14 02:36:36;;;;;;;19.00;12.00;;;;;;;2.91;83.68;100809.84;107151;1253;74163;-85
2023/02/14 02:39:17;;;;;;;17.50;11.30;;;;;;;2.92;83.82;100809.51;107169;1253;61178;-86
2023/02/14 02:41:47;;;;;;;17.50;11.40;;;;;;;2.93;83.79;100811.02;107093;1258;60774;-87
2023/02/14 02:44:25;;;;;;;16.70;11.20;;;;;;;2.94;83.73;100810.14;107389;1253;74584;-87
2023/02/14 02:47:37;;;;;;;18.70;11.70;;;;;;;2.92;83.96;100802.42;107144;1253;64728;-85
2023/02/14 02:53:38;;;;;;;16.10;10.50;;;;;;;2.90;84.15;100793.48;109057;1253;59395;-85
2023/02/14 02:59:29;;;;;;;16.00;11.60;;;;;;;2.88;83.84;100787.12;109545;1253;73701;-86
2023/02/14 03:02:00;;;;;;;16.60;11.50;;;;;;;2.87;84.13;100782.49;109492;1253;63875;-86
2023/02/14 03:10:24;;;;;;;14.90;11.30;;;;;;;2.93;84.67;100779.41;108289;1253;60034;-87
2023/02/14 03:13:12;;;;;;;18.40;11.60;;;;;;;2.99;84.72;100771.83;107433;1253;72741;-85
2023/02/14 03:15:51;;;;;;;17.60;11.60;;;;;;;3.03;84.74;100766.73;107219;1253;64617;-87
2023/02/14 03:21:40;;;;;;;18.10;11.60;;;;;;;3.08;84.45;100749.98;107970;1253;60536;-86
2023/02/14 03:24:36;;;;;;;22.40;13.20;;;;;;;3.08;84.22;100747.73;107282;1253;60534;-86
2023/02/14 03:27:21;;;;;;;24.20;14.00;;;;;;;3.03;84.05;100745.29;107362;1253;73820;-85
2023/02/14 03:30:06;;;;;;;23.70;15.40;;;;;;;3.00;84.34;100740.89;107209;1253;64555;-86
2023/02/14 03:32:53;;;;;;;22.20;14.50;;;;;;;2.98;84.52;100734.02;107126;1253;73577;-86
2023/02/14 03:36:01;;;;;;;24.80;15.70;;;;;;;2.96;84.63;100729.26;107120;1256;61127;-86
2023/02/14 03:38:55;;;;;;;31.00;17.90;;;;;;;2.90;84.76;100723.70;107316;1253;61575;-86
2023/02/14 03:41:33;;;;;;;34.90;20.70;;;;;;;2.88;84.97;100717.73;107377;1253;73173;-87
2023/02/14 03:44:03;;;;;;;37.60;19.30;;;;;;;2.89;85.44;100714.06;107252;1256;63685;-87
2023/02/14 03:46:37;;;;;;;35.20;21.60;;;;;;;2.92;85.55;100709.84;107348;1253;74122;-86
2023/02/14 03:49:09;;;;;;;50.90;26.50;;;;;;;2.94;85.60;100705.50;107874;1255;60420;-87
2023/02/14 03:52:06;;;;;;;44.20;26.50;;;;;;;2.94;85.56;100698.05;107100;1253;60905;-86
2023/02/14 03:54:33;;;;;;;45.20;25.10;;;;;;;2.91;85.43;100700.02;107099;1257;73681;-86
2023/02/14 03:57:06;;;;;;;45.80;26.20;;;;;;;2.88;85.62;100690.26;107143;1253;63948;-87
2023/02/14 03:59:34;;;;;;;47.90;25.10;;;;;;;2.88;85.67;100685.61;107462;1253;73541;-86
2023/02/14 04:02:11;;;;;;;44.60;24.10;;;;;;;2.84;85.88;100681.40;107358;1253;62036;-88
2023/02/14 04:04:42;;;;;;;41.50;21.40;;;;;;;2.85;85.98;100679.13;107375;1253;60614;-85
2023/02/14 04:07:15;;;;;;;37.00;21.20;;;;;;;2.87;86.12;100676.48;107734;1253;73693;-85
2023/02/14 04:09:45;;;;;;;34.80;20.30;;;;;;;2.87;86.22;100672.87;107728;1258;62615;-87
2023/02/14 04:12:13;;;;;;;37.40;21.10;;;;;;;2.87;86.30;100678.21;107712;1253;72408;-87
2023/02/14 04:14:42;;;;;;;47.90;25.20;;;;;;;2.90;86.65;100672.61;107499;1253;60375;-85
2023/02/14 04:20:00;;;;;;;48.40;26.70;;;;;;;2.99;86.54;100669.25;107447;1253;74655;-85
2023/02/14 04:22:28;;;;;;;46.30;27.40;;;;;;;3.00;86.37;100668.52;107671;1253;63664;-86
2023/02/14 04:24:58;;;;;;;35.80;22.90;;;;;;;3.01;86.38;100667.81;107341;1253;73703;-84
2023/02/14 04:27:25;;;;;;;42.50;23.10;;;;;;;2.99;86.32;100663.55;107237;1253;61167;-87
2023/02/14 04:29:56;;;;;;;42.40;23.30;;;;;;;2.95;86.27;100664.35;107643;1253;61492;-84
2023/02/14 04:32:23;;;;;;;38.80;23.20;;;;;;;2.92;86.37;100660.48;107635;1253;74558;-85
2023/02/14 04:34:51;;;;;;;45.20;25.30;;;;;;;2.88;86.40;100667.45;107948;1253;64861;-85
2023/02/14 04:37:23;;;;;;;45.80;24.10;;;;;;;2.87;86.81;100672.16;107365;1253;74234;-86
2023/02/14 04:39:54;;;;;;;41.70;23.40;;;;;;;2.88;86.87;100680.95;107842;1253;61248;-85
2023/02/14 04:42:20;;;;;;;27.70;17.60;;;;;;;2.90;87.33;100689.88;107512;1253;60265;-87
2023/02/14 04:44:48;;;;;;;34.60;18.70;;;;;;;2.90;87.28;100689.17;107844;1253;73693;-86
2023/02/14 04:47:16;;;;;;;30.40;17.50;;;;;;;2.84;87.44;100694.02;107646;1253;63519;-85
2023/02/14 04:49:43;;;;;;;31.60;18.20;;;;;;;2.80;87.51;100691.19;107079;1253;73720;-85
2023/02/14 04:52:11;;;;;;;23.70;15.10;;;;;;;2.78;87.89;100687.96;107194;1257;60418;-87
2023/02/14 04:54:44;;;;;;;23.80;15.40;;;;;;;2.77;88.06;100690.75;107327;1253;60325;-84
2023/02/14 04:57:11;;;;;;;22.80;13.50;;;;;;;2.75;88.32;100684.74;106991;1258;72647;-84
2023/02/14 04:59:40;;;;;;;22.20;12.80;;;;;;;2.72;88.40;100690.36;106871;1256;64744;-84
2023/02/14 05:02:07;;;;;;;16.80;11.30;;;;;;;2.72;88.94;100687.08;106957;1258;73656;-85
2023/02/14 05:04:36;;;;;;;17.30;10.70;;;;;;;2.70;89.03;100687.64;107053;1257;60799;-85
2023/02/14 05:07:04;;;;;;;13.80;9.70;;;;;;;2.67;89.14;100688.58;106955;1253;60547;-85
2023/02/14 05:09:32;;;;;;;12.70;8.90;;;;;;;2.66;89.42;100688.61;107160;1256;74821;-84
2023/02/14 05:11:59;;;;;;;15.30;9.80;;;;;;;2.65;89.52;100687.27;106799;1253;64824;-85
2023/02/14 05:14:29;;;;;;;13.40;9.70;;;;;;;2.61;89.59;100687.54;106803;1253;71380;-85
2023/02/14 05:16:57;;;;;;;14.50;9.30;;;;;;;2.61;89.85;100681.34;107015;1257;62217;-85
2023/02/14 05:19:26;;;;;;;13.10;10.10;;;;;;;2.60;89.99;100682.55;107211;1256;60343;-85
2023/02/14 05:21:53;;;;;;;15.00;9.40;;;;;;;2.58;89.94;100683.12;107279;1253;74803;-85
2023/02/14 05:24:21;;;;;;;12.70;10.40;;;;;;;2.53;89.84;100684.48;107561;1253;63701;-86
2023/02/14 05:26:49;;;;;;;13.90;9.40;;;;;;;2.51;90.12;100677.80;107059;1253;72498;-87
2023/02/14 05:29:16;;;;;;;12.60;10.50;;;;;;;2.49;90.06;100680.94;107168;1253;61974;-88
2023/02/14 05:31:43;;;;;;;13.30;10.20;;;;;;;2.51;90.28;100673.12;106749;1253;60830;-87
2023/02/14 05:34:11;;;;;;;12.90;8.50;;;;;;;2.54;90.28;100671.33;107483;1257;74692;-86
2023/02/14 05:36:39;;;;;;;11.60;8.40;;;;;;;2.56;90.03;100670.77;107036;1257;64583;-88
2023/02/14 05:39:06;;;;;;;12.80;9.10;;;;;;;2.57;89.91;100672.65;107188;1253;72594;-88
2023/02/14 05:41:34;;;;;;;11.10;8.70;;;;;;;2.55;89.89;100669.08;107301;1253;60513;-87
2023/02/14 05:44:01;;;;;;;11.90;8.70;;;;;;;2.52;89.84;100669.30;107414;1253;61036;-85
2023/02/14 05:46:28;;;;;;;14.70;9.60;;;;;;;2.52;89.72;100666.39;107357;1253;73797;-87
2023/02/14 05:48:55;;;;;;;12.60;8.40;;;;;;;2.50;89.74;100668.33;107152;1253;63987;-87
2023/02/14 05:51:22;;;;;;;10.80;9.20;;;;;;;2.48;89.70;100665.25;107687;1253;73581;-88
2023/02/14 05:53:50;;;;;;;12.90;9.50;;;;;;;2.46;89.55;100665.13;107368;1256;61141;-89
2023/02/14 05:56:17;;;;;;;11.80;8.60;;;;;;;2.44;89.73;100668.14;107905;1253;60405;-85
2023/02/14 05:59:06;;;;;;;9.10;7.30;;;;;;;2.40;89.77;100673.41;108240;1253;73722;-90
2023/02/14 06:01:59;;;;;;;13.80;8.20;;;;;;;2.38;89.97;100673.63;107162;1253;65258;-87
2023/02/14 06:04:27;;;;;;;14.60;9.30;;;;;;;2.37;90.20;100670.89;107595;1253;73751;-87
2023/02/14 06:06:54;;;;;;;9.70;7.80;;;;;;;2.36;90.42;100671.80;107487;1256;61076;-86
2023/02/14 06:09:22;;;;;;;11.10;8.70;;;;;;;2.36;90.47;100672.14;107131;1253;59516;-86
2023/02/14 06:11:49;;;;;;;10.00;6.70;;;;;;;2.34;90.59;100666.15;107746;1253;73931;-87
2023/02/14 06:14:16;;;;;;;9.60;7.70;;;;;;;2.33;90.53;100668.75;106306;1258;1449105;-90
2023/02/14 06:17:39;;;;;;;9.40;7.20;;;;;;;2.30;90.47;100671.26;104140;1291;599393;-87
2023/02/14 06:20:16;;;;;;;10.10;7.70;;;;;;;2.24;90.85;100667.41;106889;1266;60690;-88
2023/02/14 06:22:46;;;;;;;8.80;7.30;;;;;;;2.25;90.82;100673.43;106727;1267;60005;-89
2023/02/14 06:25:19;;;;;;;9.10;7.40;;;;;;;2.25;90.70;100669.98;106989;1260;72349;-88
2023/02/14 06:27:50;;;;;;;;;;;;;;;2.23;90.38;100670.89;107085;1260;63659;-88
2023/02/14 06:30:18;;;;;;;7.60;6.20;;;;;;;2.18;90.49;100669.63;106097;1263;834158;-89
2023/02/14 06:33:01;;;;;;;9.50;7.00;;;;;;;2.10;90.34;100668.64;107024;1257;61165;-88
2023/02/14 06:35:32;;;;;;;6.70;5.40;;;;;;;2.01;90.36;100666.42;107027;1257;61179;-89
2023/02/14 06:38:00;;;;;;;6.50;5.80;;;;;;;1.98;90.74;100663.05;107716;1257;70259;-87
2023/02/14 06:40:30;;;;;;;6.20;5.50;;;;;;;1.96;90.71;100662.08;108857;1257;64323;-91
2023/02/14 06:42:59;;;;;;;8.60;5.70;;;;;;;1.96;90.91;100659.14;107370;1257;72534;-90
2023/02/14 06:45:28;;;;;;;7.30;5.90;;;;;;;1.94;90.87;100661.59;107180;1257;62230;-88
2023/02/14 06:47:59;;;;;;;6.40;5.30;;;;;;;1.95;91.12;100662.09;107108;1257;59981;-89
2023/02/14 06:50:28;;;;;;;5.40;4.60;;;;;;;1.96;91.18;100665.53;107152;1257;73704;-87
2023/02/14 06:52:58;;;;;;;7.80;5.50;;;;;;;1.96;91.27;100662.08;107150;1256;65864;-86
2023/02/14 06:55:27;;;;;;;6.00;5.40;;;;;;;1.94;91.18;100661.61;107291;1257;72558;-87
2023/02/14 06:57:57;;;;;;;5.50;4.70;;;;;;;1.93;91.37;100668.85;108343;1256;61089;-87
2023/02/14 07:00:41;;;;;;;5.40;4.50;;;;;;;1.92;91.38;100666.30;108333;1255;62275;-88
2023/02/14 07:03:11;;;;;;;5.40;4.50;;;;;;;1.92;91.49;100669.23;109126;1256;72993;-86
2023/02/14 07:05:40;;;;;;;4.90;4.40;;;;;;;1.86;91.46;100667.48;109239;1255;64387;-87
2023/02/14 07:08:14;;;;;;;5.40;4.80;;;;;;;1.81;91.88;100663.79;109133;1256;73893;-89
2023/02/14 07:10:59;;;;;;;4.70;4.10;;;;;;;1.80;92.30;100665.55;108549;1257;59396;-88
2023/02/14 07:13:29;;;;;;;5.30;4.80;;;;;;;1.78;92.45;100661.10;108455;1255;60334;-86
2023/02/14 07:16:03;;;;;;;5.30;4.60;;;;;;;1.78;92.59;100667.84;109141;1257;72324;-86
2023/02/14 07:18:31;;;;;;;5.40;4.90;;;;;;;1.77;92.89;100660.27;109279;1254;63554;-88
2023/02/14 07:21:00;;;;;;;4.00;3.50;;;;;;;1.78;92.78;100662.82;108495;1254;72267;-86
2023/02/14 07:23:30;;;;;;;5.10;3.70;;;;;;;1.79;93.02;100657.81;108703;1254;60902;-89
2023/02/14 07:25:58;;;;;;;4.50;3.80;;;;;;;1.81;93.04;100657.26;106699;1256;60253;-87
2023/02/14 07:28:29;;;;;;;4.50;3.80;;;;;;;1.80;93.18;100654.35;106829;1255;74004;-87
2023/02/14 07:30:59;;;;;;;4.20;3.80;;;;;;;1.81;93.43;100655.34;106950;1256;63542;-88
2023/02/14 07:33:32;;;;;;;4.50;3.50;;;;;;;1.84;93.67;100651.98;107298;1256;73005;-86
2023/02/14 07:36:17;;;;;;;3.80;3.40;;;;;;;1.88;93.78;100657.44;108339;1254;60496;-87
2023/02/14 07:38:49;;;;;;;5.40;3.70;;;;;;;1.91;93.95;100652.18;107700;1254;61384;-88
2023/02/14 07:41:19;;;;;;;3.60;2.90;;;;;;;1.97;93.87;100655.84;107445;1254;71900;-88
2023/02/14 07:43:50;;;;;;;4.10;3.70;;;;;;;2.00;93.75;100649.55;107412;1259;63905;-87
2023/02/14 07:46:19;;;;;;;4.10;3.60;;;;;;;2.00;93.70;100651.10;107244;1257;72641;-88
2023/02/14 07:48:49;;;;;;;3.70;3.10;;;;;;;2.01;93.79;100650.23;106838;1263;61173;-88
2023/02/14 07:51:18;;;;;;;5.50;3.40;;;;;;;2.01;93.85;100647.98;107249;1257;59977;-88
2023/02/14 07:53:49;;;;;;;5.40;4.00;;;;;;;2.05;94.21;100647.89;107347;1256;72987;-87
2023/02/14 07:56:18;;;;;;;4.10;3.60;;;;;;;2.12;94.35;100646.50;107309;1257;63836;-89
2023/02/14 07:58:48;;;;;;;4.60;4.00;;;;;;;2.19;94.41;100641.50;107930;1256;72622;-87
2023/02/14 08:01:36;;;;;;;2.70;2.40;;;;;;;2.23;94.45;100644.17;107800;1256;60787;-88
2023/02/14 08:04:07;;;;;;;4.70;3.50;;;;;;;2.29;94.27;100645.73;107434;1256;60306;-88
2023/02/14 08:06:39;;;;;;;4.00;3.00;;;;;;;2.32;94.14;100646.17;108472;1262;73019;-89
2023/02/14 08:09:09;;;;;;;5.80;4.10;;;;;;;2.36;94.09;100647.81;107462;1256;63708;-86
2023/02/14 08:14:30;;;;;;;5.30;3.60;;;;;;;2.46;94.14;100658.42;107009;1256;61565;-88
2023/02/14 08:16:59;;;;;;;3.70;2.90;;;;;;;2.54;94.28;100655.80;107621;1254;61195;-87
2023/02/14 08:19:31;;;;;;;3.30;2.70;;;;;;;2.60;93.71;100657.55;107826;1253;73960;-87
2023/02/14 08:22:00;;;;;;;3.30;3.00;;;;;;;2.60;93.54;100663.74;107474;1253;64916;-88
2023/02/14 08:24:33;;;;;;;3.80;3.50;;;;;;;2.62;93.33;100666.27;108004;1253;73525;-87
2023/02/14 08:27:02;;;;;;;7.30;3.60;;;;;;;2.63;93.07;100669.20;107816;1254;61211;-89
2023/02/14 08:29:36;;;;;;;3.70;3.20;;;;;;;2.62;92.89;100667.48;108337;1256;61305;-86
2023/02/14 08:32:05;;;;;;;6.70;5.10;;;;;;;2.62;92.81;100667.49;107756;1256;73114;-87
2023/02/14 08:34:34;;;;;;;5.00;4.40;;;;;;;2.63;92.96;100663.83;107499;1255;63637;-88
2023/02/14 08:37:04;;;;;;;5.60;4.70;;;;;;;2.68;92.92;100665.77;107721;1255;75470;-87
2023/02/14 08:39:33;;;;;;;3.70;3.40;;;;;;;2.69;92.66;100663.48;107441;1256;61274;-88
2023/02/14 08:42:04;;;;;;;4.90;3.80;;;;;;;2.69;92.67;100663.48;107761;1256;60096;-88
2023/02/14 08:44:38;;;;;;;4.10;3.10;;;;;;;2.72;92.67;100658.77;107977;1257;72983;-89
2023/02/14 08:47:12;;;;;;;4.30;3.60;;;;;;;2.73;92.59;100659.09;108387;1255;63793;-89
2023/02/14 08:49:56;;;;;;;3.40;3.10;;;;;;;2.78;92.78;100656.20;108368;1257;73189;-89
2023/02/14 08:52:25;;;;;;;4.00;3.00;;;;;;;2.84;92.49;100661.21;107493;1257;60592;-88
2023/02/14 08:54:54;;;;;;;3.60;3.20;;;;;;;2.88;92.54;100656.59;107580;1256;61304;-89
2023/02/14 08:57:26;;;;;;;5.10;3.30;;;;;;;2.93;92.53;100653.71;107383;1257;73006;-89
2023/02/14 08:59:58;;;;;;;5.50;3.30;;;;;;;2.99;92.39;100657.52;107729;1253;63794;-88
2023/02/14 09:02:31;;;;;;;3.60;3.30;;;;;;;3.03;92.03;100652.73;108243;1257;73441;-89
2023/02/14 09:05:02;;;;;;;4.40;3.20;;;;;;;3.07;92.10;100649.86;108714;1253;60115;-88
2023/02/14 09:07:48;;;;;;;3.90;3.00;;;;;;;3.12;92.05;100652.13;108502;1257;60445;-88
2023/02/14 09:10:36;;;;;;;3.40;3.10;;;;;;;3.17;92.10;100648.72;108581;1254;72720;-85
2023/02/14 09:13:06;;;;;;;3.90;3.50;;;;;;;3.19;91.97;100647.80;108164;1254;63837;-86
2023/02/14 09:15:35;;;;;;;4.00;3.40;;;;;;;3.24;92.03;100648.85;108330;1253;72003;-89
2023/02/14 09:18:15;;;;;;;4.30;3.80;;;;;;;3.28;91.68;100652.17;108296;1253;61170;-88
2023/02/14 09:20:55;;;;;;;2.90;2.50;;;;;;;3.36;91.83;100652.29;108741;1253;59965;-88
2023/02/14 09:23:58;;;;;;;4.80;3.30;;;;;;;3.44;91.57;100652.23;108354;1257;73622;-89
2023/02/14 09:30:09;;;;;;;3.80;3.10;;;;;;;3.62;91.20;100647.55;108913;1254;72253;-87
2023/02/14 09:33:03;;;;;;;4.80;3.80;;;;;;;3.70;90.91;100653.35;108673;1261;60531;-87
2023/02/14 09:35:44;;;;;;;4.40;3.60;;;;;;;3.79;90.72;100651.15;107971;1261;59365;-89
2023/02/14 09:38:13;;;;;;;5.40;3.30;;;;;;;3.89;90.59;100653.44;107689;1265;73274;-87
2023/02/14 09:41:30;;;;;;;6.30;3.90;;;;;;;4.00;90.12;100652.05;107799;1259;63566;31
2023/02/14 09:44:30;;;;;;;3.20;2.80;;;;;;;4.11;88.89;100655.83;108138;1264;72678;-89
2023/02/14 09:47:43;;;;;;;5.10;3.60;;;;;;;4.23;88.45;100661.16;107179;1263;61888;-88
2023/02/14 09:50:45;;;;;;;3.40;2.80;;;;;;;4.43;87.94;100661.02;107030;1267;60901;-88
2023/02/14 09:53:29;;;;;;;3.70;3.30;;;;;;;4.57;87.31;100659.32;107212;1268;72747;-86
2023/02/14 09:56:12;;;;;;;4.00;2.60;;;;;;;4.68;86.67;100659.13;107570;1263;63831;-85
2023/02/14 09:58:48;;;;;;;4.00;3.30;;;;;;;4.77;85.80;100660.17;106958;1267;72535;-87
2023/02/14 10:01:23;;;;;;;3.40;2.50;;;;;;;4.82;84.89;100661.58;106926;1264;60651;-87
2023/02/14 10:04:19;;;;;;;4.40;3.10;;;;;;;4.79;83.83;100660.98;107269;1262;61157;-84
2023/02/14 10:07:09;;;;;;;3.60;3.20;;;;;;;4.78;83.77;100664.64;106758;1264;72948;-84
2023/02/14 10:10:22;;;;;;;4.00;2.50;;;;;;;4.78;83.51;100664.84;107994;1254;62599;-85
2023/02/14 10:13:42;;;;;;;14.20;8.60;;;;;;;4.76;82.74;100662.63;109022;1259;72449;-85
2023/02/14 10:16:36;;;;;;;4.40;3.50;;;;;;;4.76;82.44;100662.48;107885;1259;60895;-85
2023/02/14 10:19:15;;;;;;;5.00;3.50;;;;;;;4.87;82.28;100660.69;107767;1259;61406;-86
2023/02/14 10:21:53;;;;;;;6.00;3.50;;;;;;;4.97;81.34;100667.27;107745;1259;73042;-85
2023/02/14 10:24:28;;;;;;;3.90;2.60;;;;;;;5.00;80.98;100663.52;106936;1259;63933;-86
2023/02/14 10:27:01;;;;;;;;;;;;;;;5.03;80.82;100661.19;107282;1265;72287;-88
2023/02/14 10:29:30;;;;;;;5.30;3.60;;;;;;;5.09;80.59;100660.60;107156;1259;59639;-83
2023/02/14 10:32:03;;;;;;;4.40;3.10;;;;;;;5.17;79.76;100667.44;107557;1259;60318;-86
2023/02/14 10:34:49;;;;;;;4.50;3.90;;;;;;;5.34;80.15;100665.39;107238;1259;72237;-87
2023/02/14 10:37:43;;;;;;;3.40;2.70;;;;;;;5.72;79.59;100657.88;106989;1259;63996;-87
2023/02/14 10:40:43;;;;;;;2.90;2.10;;;;;;;6.39;77.88;100658.48;106709;1260;73965;-85
2023/02/14 10:43:30;;;;;;;4.60;2.60;;;;;;;7.04;74.67;100657.73;108009;1259;60533;-85
2023/02/14 10:46:23;;;;;;;4.90;2.90;;;;;;;7.67;72.81;100652.76;106968;1265;60352;-85
2023/02/14 10:48:59;;;;;;;3.50;1.80;;;;;;;8.28;70.09;100646.84;106726;1264;74835;-87
2023/02/14 10:51:48;;;;;;;2.20;1.60;;;;;;;8.61;66.95;100642.79;106533;1268;64752;-84
2023/02/14 10:54:27;;;;;;;3.50;1.90;;;;;;;8.66;64.49;100641.33;107178;1259;72661;-87
2023/02/14 10:56:59;;;;;;;1.00;1.00;;;;;;;8.56;63.60;100639.02;107964;1259;60341;-87
2023/02/14 10:59:37;;;;;;;2.30;1.40;;;;;;;8.61;62.95;100633.38;108077;1259;60466;-85
2023/02/14 11:02:09;;;;;;;2.30;1.70;;;;;;;8.78;62.63;100635.47;108901;1259;73686;-86
2023/02/14 11:04:37;;;;;;;2.30;1.70;;;;;;;8.93;62.28;100633.79;108898;1259;63886;-87
2023/02/14 11:07:15;;;;;;;2.20;1.30;;;;;;;9.15;61.33;100626.89;108280;1259;72648;-87
2023/02/14 11:09:46;;;;;;;4.10;3.40;;;;;;;9.40;60.15;100626.55;107156;1263;62031;-87
2023/02/14 11:12:38;;;;;;;3.40;1.90;;;;;;;9.66;59.53;100617.08;107078;1264;61191;-86
2023/02/14 11:15:13;;;;;;;2.90;1.40;;;;;;;9.88;58.45;100616.73;106796;1259;74784;-87
2023/02/14 11:17:42;;;;;;;2.80;1.80;;;;;;;9.81;57.25;100616.20;107118;1268;63795;-84
2023/02/14 11:20:17;;;;;;;2.00;1.50;;;;;;;9.52;56.90;100614.05;107703;1267;74644;-86
2023/02/14 11:22:48;;;;;;;2.90;1.90;;;;;;;9.05;57.35;100620.05;107248;1259;60540;-86
2023/02/14 11:25:22;;;;;;;3.10;1.80;;;;;;;8.58;58.13;100623.27;106740;1259;60419;-85
2023/02/14 11:28:01;;;;;;;3.40;1.90;;;;;;;8.21;59.09;100624.38;106642;1264;73582;-87
2023/02/14 11:30:32;;;;;;;2.60;1.50;;;;;;;7.82;59.53;100620.22;107476;1259;63539;-87
2023/02/14 11:33:03;;;;;;;2.70;1.40;;;;;;;7.40;60.28;100613.86;107143;1259;72319;-88
2023/02/14 11:35:35;;;;;;;3.40;1.70;;;;;;;7.05;61.27;100623.11;107256;1259;60368;-86
2023/02/14 11:38:34;;;;;;;3.10;1.50;;;;;;;6.79;62.36;100621.52;107118;1260;61469;-87
2023/02/14 11:41:05;;;;;;;2.90;2.10;;;;;;;6.65;62.85;100629.41;106630;1260;74674;-86
2023/02/14 11:43:42;;;;;;;3.70;2.00;;;;;;;6.56;63.15;100630.48;107347;1259;64105;-87
2023/02/14 11:46:21;;;;;;;3.60;1.60;;;;;;;6.44;63.82;100627.55;107031;1260;72453;-88
2023/02/14 11:49:05;;;;;;;3.40;1.80;;;;;;;6.32;64.08;100618.34;107145;1259;60281;-87
2023/02/14 11:51:39;;;;;;;3.00;1.90;;;;;;;6.18;64.48;100624.81;106469;1260;62182;-85
2023/02/14 11:54:34;;;;;;;2.50;1.60;;;;;;;6.11;64.87;100620.23;107922;1259;73967;-85
2023/02/14 11:57:53;;;;;;;2.70;1.90;;;;;;;6.06;65.36;100627.56;107648;1259;63577;-85
2023/02/14 12:00:30;;;;;;;3.80;2.00;;;;;;;6.01;66.05;100620.28;107148;1259;73901;-88
2023/02/14 12:03:00;;;;;;;2.80;2.00;;;;;;;6.00;66.07;100623.98;107700;1259;59231;-86
2023/02/14 12:05:43;;;;;;;2.90;1.90;;;;;;;5.98;66.37;100623.53;107212;1265;60469;-86
2023/02/14 12:08:15;;;;;;;2.40;1.60;;;;;;;5.95;66.59;100618.65;107789;1262;74575;-89
2023/02/14 12:10:46;;;;;;;3.80;2.20;;;;;;;5.84;66.65;100623.21;106691;1259;62880;-87
2023/02/14 12:13:15;;;;;;;2.00;1.90;;;;;;;5.78;66.81;100622.41;106468;1259;73797;-88
2023/02/14 12:15:47;;;;;;;5.30;3.40;;;;;;;5.73;66.93;100615.52;106551;1259;61261;-85
2023/02/14 12:18:41;;;;;;;4.10;2.70;;;;;;;5.72;67.27;100618.48;106823;1262;60206;-85
2023/02/14 12:21:29;;;;;;;2.70;2.50;;;;;;;5.71;67.58;100619.39;106734;1260;72901;-86
2023/02/14 12:24:04;;;;;;;4.90;2.60;;;;;;;5.68;67.82;100619.00;106592;1260;63811;-87